PAPT

Puntilla Airport

Alaska, USA
METAR PAPT 180046Z 17008KT 2SM -RA OVC010 04/04 A2955 RMK NO SPECI LAST
Observed Flight Rules
Oct-18 @ 00:46 UTC (9 hours ago) Instrument Flight Rules
Wind Visibility Clouds Conditions
170° at 8 knots 2 miles
  • Overcast at 1,000' AGL
  • Light Rain
Temperatures Readings
Current 4°C / 39°F
Dewpoint 4°C / 39°F
Humidity 100%
Altimeter 29.55" Hg
Pressure 1001 hPa
Elevation 558
METAR PAPT 180046Z 17008KT 2SM -RA OVC010 04/04 A2955 RMK NO SPECI LAST
Observed Flight Rules
Oct-18 @ 00:46 UTC
(9 hours ago)
IFR
Wind Visibility
170° at 8 knots 2 miles
Clouds
  • Overcast at 1,000' AGL
Conditions
  • Light Rain
Temperature Dewpoint
4°C / 39°F 4°C / 39°F
Humidity Altimeter Pressure
100% 29.55" Hg 1001 hPa